createdAt,value
2022-09-03T00:01:11.654Z,1.27
2022-09-03T00:03:40.547Z,1.10
2022-09-03T00:06:17.471Z,1.02
2022-09-03T00:08:50.799Z,1.20
2022-09-03T00:11:20.771Z,1.23
2022-09-03T00:13:53.728Z,1.20
2022-09-03T00:16:22.510Z,1.23
2022-09-03T00:19:00.639Z,1.30
2022-09-03T00:22:07.149Z,1.05
2022-09-03T00:24:36.084Z,1.05
2022-09-03T00:27:05.257Z,1.50
2022-09-03T00:29:31.590Z,1.20
2022-09-03T00:32:00.977Z,1.02
2022-09-03T00:34:30.727Z,1.10
2022-09-03T00:36:57.381Z,1.15
2022-09-03T00:39:25.300Z,1.30
2022-09-03T00:42:10.513Z,1.20
2022-09-03T00:44:43.326Z,1.20
2022-09-03T00:47:12.267Z,1.00
2022-09-03T00:49:57.435Z,1.15
2022-09-03T00:52:35.065Z,1.33
2022-09-03T00:55:05.299Z,1.20
2022-09-03T00:57:31.630Z,1.20
2022-09-03T01:00:06.873Z,1.27
2022-09-03T01:02:42.071Z,1.40
2022-09-03T01:05:11.556Z,1.25
2022-09-03T01:07:46.139Z,1.20
2022-09-03T01:10:20.947Z,1.20
2022-09-03T01:12:54.272Z,1.20
2022-09-03T01:15:30.728Z,1.37
2022-09-03T01:18:04.380Z,1.10
2022-09-03T01:20:36.934Z,1.08
2022-09-03T01:23:03.231Z,1.20
2022-09-03T01:25:32.044Z,1.10
2022-09-03T01:28:22.167Z,1.20
2022-09-03T01:30:52.233Z,1.30
2022-09-03T01:33:18.588Z,1.38
2022-09-03T01:35:49.272Z,1.40
2022-09-03T01:38:15.697Z,1.10
2022-09-03T01:40:55.640Z,1.30
2022-09-03T01:43:34.097Z,1.20
2022-09-03T01:46:14.149Z,1.30
2022-09-03T01:49:04.826Z,1.00
2022-09-03T01:51:31.593Z,1.30
2022-09-03T01:54:01.920Z,1.10
2022-09-03T01:56:38.266Z,1.17
2022-09-03T01:59:07.826Z,1.10
2022-09-03T02:01:41.350Z,1.15
2022-09-03T02:04:16.953Z,1.27
2022-09-03T02:06:44.638Z,1.10
2022-09-03T02:09:10.964Z,1.65
2022-09-03T02:11:37.469Z,1.30
2022-09-03T02:14:04.775Z,1.25
2022-09-03T02:16:33.001Z,1.60
2022-09-03T02:19:01.589Z,1.00
2022-09-03T02:21:31.449Z,1.10
2022-09-03T02:23:57.929Z,1.27
2022-09-03T02:26:24.784Z,1.35
2022-09-03T02:28:52.070Z,1.20
2022-09-03T02:31:18.520Z,1.30
2022-09-03T02:33:46.037Z,1.20
2022-09-03T02:36:13.245Z,1.38
2022-09-03T02:38:41.381Z,1.30
2022-09-03T02:41:07.853Z,1.17
2022-09-03T02:43:40.886Z,1.45
2022-09-03T02:46:09.789Z,1.30
2022-09-03T02:48:36.212Z,1.15
2022-09-03T02:51:02.541Z,1.25
2022-09-03T02:53:40.529Z,1.20
2022-09-03T02:56:06.886Z,1.05
2022-09-03T02:58:33.310Z,1.13
2022-09-03T03:00:59.756Z,1.45
2022-09-03T03:03:26.161Z,1.17
2022-09-03T03:05:57.861Z,1.33
2022-09-03T03:08:25.694Z,1.27
2022-09-03T03:10:52.582Z,1.40
2022-09-03T03:13:19.010Z,1.15
2022-09-03T03:15:46.221Z,1.40
2022-09-03T03:18:13.945Z,1.10
2022-09-03T03:20:40.897Z,1.35
2022-09-03T03:23:07.340Z,1.20
2022-09-03T03:25:37.509Z,1.20
2022-09-03T03:28:05.055Z,1.58
2022-09-03T03:30:32.174Z,1.38
2022-09-03T03:32:58.637Z,2.03
2022-09-03T03:35:25.026Z,1.30
2022-09-03T03:37:51.394Z,1.40
2022-09-03T03:40:17.953Z,1.35
2022-09-03T03:42:44.289Z,1.30
2022-09-03T03:45:10.729Z,1.40
2022-09-03T03:47:37.178Z,1.33
2022-09-03T03:50:04.061Z,1.30
2022-09-03T03:52:30.452Z,1.45
2022-09-03T03:54:57.270Z,1.20
2022-09-03T03:57:23.627Z,1.50
2022-09-03T03:59:50.135Z,1.83
2022-09-03T04:02:17.160Z,1.25
2022-09-03T04:04:43.533Z,1.30
2022-09-03T04:07:09.985Z,1.40
2022-09-03T04:09:37.281Z,1.30
2022-09-03T04:12:03.793Z,1.30
2022-09-03T04:14:30.145Z,1.35
2022-09-03T04:16:56.806Z,1.50
2022-09-03T04:19:24.161Z,1.10
2022-09-03T04:21:50.561Z,1.42
2022-09-03T04:24:16.954Z,1.60
2022-09-03T04:26:43.365Z,1.48
2022-09-03T04:29:10.189Z,1.80
2022-09-03T04:31:37.662Z,1.20
2022-09-03T04:34:06.384Z,1.30
2022-09-03T04:36:33.177Z,1.40
2022-09-03T04:39:01.566Z,1.45
2022-09-03T04:41:29.501Z,1.38
2022-09-03T04:43:56.796Z,1.30
2022-09-03T04:46:26.037Z,1.30
2022-09-03T04:48:54.082Z,1.35
2022-09-03T04:51:27.125Z,1.30
2022-09-03T04:53:54.968Z,1.40
2022-09-03T04:56:22.907Z,1.20
2022-09-03T04:58:51.174Z,1.40
2022-09-03T05:01:19.443Z,1.40
2022-09-03T05:03:46.000Z,1.50
2022-09-03T05:06:12.970Z,1.10
2022-09-03T05:08:40.251Z,1.42
2022-09-03T05:11:07.461Z,1.40
2022-09-03T05:13:35.040Z,1.48
2022-09-03T05:16:02.263Z,1.40
2022-09-03T05:18:29.029Z,1.45
2022-09-03T05:21:02.567Z,1.63
2022-09-03T05:23:33.250Z,1.50
2022-09-03T05:26:06.465Z,1.50
2022-09-03T05:28:36.464Z,1.40
2022-09-03T05:31:10.574Z,1.50
2022-09-03T05:36:07.561Z,1.50
2022-09-03T05:38:34.056Z,1.50
2022-09-03T05:41:05.004Z,1.48
2022-09-03T05:43:31.945Z,1.45
2022-09-03T05:46:00.496Z,1.30
2022-09-03T05:48:28.533Z,1.40
2022-09-03T05:51:01.596Z,1.40
2022-09-03T05:53:28.620Z,1.60
2022-09-03T05:55:56.217Z,1.52
2022-09-03T05:58:22.607Z,1.45
2022-09-03T06:00:48.923Z,1.58
2022-09-03T06:03:15.360Z,1.35
2022-09-03T06:05:49.349Z,1.50
2022-09-03T06:08:15.703Z,1.60
2022-09-03T06:10:42.061Z,1.35
2022-09-03T06:13:08.468Z,1.63
2022-09-03T06:15:34.845Z,1.60
2022-09-03T06:18:01.197Z,1.60
2022-09-03T06:20:29.038Z,1.40
2022-09-03T06:22:55.450Z,1.52
2022-09-03T06:25:21.829Z,1.48
2022-09-03T06:27:49.384Z,1.50
2022-09-03T06:30:16.945Z,1.35
2022-09-03T06:32:43.994Z,1.73
2022-09-03T06:35:10.381Z,1.52
2022-09-03T06:37:40.210Z,1.73
2022-09-03T06:40:12.974Z,1.60
2022-09-03T06:42:45.813Z,1.98
2022-09-03T06:45:12.998Z,1.58
2022-09-03T06:47:39.348Z,1.70
2022-09-03T06:50:05.964Z,1.50
2022-09-03T06:52:32.271Z,1.90
2022-09-03T06:54:58.601Z,1.77
2022-09-03T06:57:24.958Z,1.90
2022-09-03T06:59:51.334Z,1.60
2022-09-03T07:02:19.188Z,1.60
2022-09-03T07:04:45.758Z,1.60
2022-09-03T07:07:16.208Z,1.70
2022-09-03T07:09:46.349Z,1.70
2022-09-03T07:12:16.814Z,1.67
2022-09-03T07:14:43.214Z,1.60
2022-09-03T07:17:09.574Z,1.90
2022-09-03T07:19:35.881Z,1.55
2022-09-03T07:22:02.609Z,1.63
2022-09-03T07:24:29.234Z,1.50
2022-09-03T07:26:58.016Z,1.75
2022-09-03T07:29:24.533Z,1.50
2022-09-03T07:31:51.999Z,1.70
2022-09-03T07:34:18.915Z,1.70
2022-09-03T07:36:50.957Z,1.73
2022-09-03T07:39:18.091Z,1.83
2022-09-03T07:41:45.937Z,1.70
2022-09-03T07:44:19.132Z,1.50
2022-09-03T07:46:47.258Z,1.60
2022-09-03T07:49:13.634Z,1.60
2022-09-03T07:51:40.288Z,1.70
2022-09-03T07:54:10.694Z,1.77
2022-09-03T07:56:37.841Z,1.95
2022-09-03T07:59:04.497Z,1.70
2022-09-03T08:01:32.861Z,1.83
2022-09-03T08:03:59.864Z,1.60
2022-09-03T08:06:27.487Z,1.98
2022-09-03T08:09:05.000Z,2.00
2022-09-03T08:11:33.083Z,1.92
2022-09-03T08:14:06.085Z,2.10
2022-09-03T08:16:36.626Z,2.28
2022-09-03T08:19:03.263Z,1.90
2022-09-03T08:21:29.603Z,2.13
2022-09-03T08:24:02.581Z,2.00
2022-09-03T08:26:33.147Z,2.20
2022-09-03T08:28:59.627Z,2.45
2022-09-03T08:31:27.990Z,2.40
2022-09-03T08:33:55.912Z,2.47
2022-09-03T08:36:26.885Z,2.40
2022-09-03T08:38:57.337Z,2.17
2022-09-03T08:41:37.677Z,2.50
2022-09-03T08:44:04.685Z,2.20
2022-09-03T08:46:43.626Z,2.10
2022-09-03T08:49:11.292Z,2.22
2022-09-03T08:51:40.383Z,2.35
2022-09-03T08:54:09.102Z,2.00
2022-09-03T08:56:39.291Z,2.45
2022-09-03T08:59:05.740Z,2.35
2022-09-03T09:01:52.745Z,2.13
2022-09-03T09:04:24.221Z,2.40
2022-09-03T09:07:00.835Z,2.53
2022-09-03T09:09:33.939Z,2.70
2022-09-03T09:12:19.057Z,2.72
2022-09-03T09:14:45.571Z,2.30
2022-09-03T09:17:32.656Z,2.50
2022-09-03T09:20:17.870Z,2.83
2022-09-03T09:22:52.809Z,2.50
2022-09-03T09:25:21.103Z,2.80
2022-09-03T09:28:00.923Z,2.92
2022-09-03T09:30:28.464Z,2.90
2022-09-03T09:32:55.945Z,2.55
2022-09-03T09:35:22.605Z,3.03
2022-09-03T09:37:51.102Z,3.13
2022-09-03T09:40:26.122Z,3.30
2022-09-03T09:43:03.709Z,2.85
2022-09-03T09:45:31.423Z,2.90
2022-09-03T09:47:57.818Z,3.40
2022-09-03T09:50:26.174Z,3.45
2022-09-03T09:53:08.561Z,3.20
2022-09-03T09:55:34.932Z,3.83
2022-09-03T09:58:05.497Z,3.90
2022-09-03T10:00:34.764Z,3.30
2022-09-03T10:03:01.869Z,3.65
2022-09-03T10:05:30.947Z,3.30
2022-09-03T10:07:59.289Z,3.10
2022-09-03T10:10:26.457Z,3.20
2022-09-03T10:12:59.169Z,3.38
2022-09-03T10:15:28.010Z,2.95
2022-09-03T10:17:54.444Z,3.17
2022-09-03T10:20:37.280Z,3.15
2022-09-03T10:23:14.682Z,3.25
2022-09-03T10:25:51.970Z,3.28
2022-09-03T10:28:18.437Z,2.75
2022-09-03T10:31:06.183Z,3.38
2022-09-03T10:33:35.979Z,3.10
2022-09-03T10:36:10.682Z,3.80
2022-09-03T10:38:37.995Z,2.80
2022-09-03T10:41:10.581Z,3.13
2022-09-03T10:43:47.525Z,3.38
2022-09-03T10:46:13.856Z,3.40
2022-09-03T10:48:50.488Z,3.05
2022-09-03T10:51:19.200Z,3.20
2022-09-03T10:54:04.142Z,3.50
2022-09-03T10:56:40.161Z,3.70
2022-09-03T10:59:18.724Z,3.50
2022-09-03T11:02:07.072Z,3.35
2022-09-03T11:04:49.432Z,3.22
2022-09-03T11:07:17.672Z,2.90
2022-09-03T11:09:48.233Z,3.47
2022-09-03T11:12:27.042Z,3.20
2022-09-03T11:14:56.013Z,3.20
2022-09-03T11:17:25.440Z,3.90
2022-09-03T11:19:56.737Z,3.50
2022-09-03T11:22:25.772Z,3.80
2022-09-03T11:24:55.487Z,3.50
2022-09-03T11:27:30.945Z,3.78
2022-09-03T11:30:08.259Z,4.15
2022-09-03T11:32:46.574Z,3.85
2022-09-03T11:35:14.164Z,3.20
2022-09-03T11:37:52.592Z,3.70
2022-09-03T11:40:29.342Z,3.92
2022-09-03T11:43:04.987Z,3.45
2022-09-03T11:45:31.346Z,3.60
2022-09-03T11:47:58.749Z,3.58
2022-09-03T11:50:30.271Z,3.40
2022-09-03T11:53:10.647Z,3.33
2022-09-03T11:55:55.938Z,3.10
2022-09-03T11:58:25.565Z,3.30
2022-09-03T12:00:55.027Z,3.75
2022-09-03T12:03:44.761Z,3.90
2022-09-03T12:06:11.074Z,3.92
2022-09-03T12:08:47.104Z,3.78
2022-09-03T12:11:25.484Z,3.63
2022-09-03T12:14:02.031Z,3.15
2022-09-03T12:16:39.633Z,3.50
2022-09-03T12:19:25.412Z,3.47
2022-09-03T12:21:52.247Z,3.10
2022-09-03T12:24:19.260Z,3.30
2022-09-03T12:26:45.833Z,2.95
2022-09-03T12:29:23.268Z,3.00
2022-09-03T12:31:56.283Z,3.33
2022-09-03T12:34:23.311Z,3.45
2022-09-03T12:36:51.648Z,2.97
2022-09-03T12:40:03.722Z,3.40
2022-09-03T12:42:07.054Z,3.13
2022-09-03T12:44:36.437Z,2.85
2022-09-03T12:49:57.971Z,2.97
2022-09-03T12:52:27.153Z,3.58
2022-09-03T12:54:56.477Z,3.20
2022-09-03T12:57:26.568Z,3.22
2022-09-03T12:59:58.377Z,2.90
2022-09-03T13:02:27.964Z,2.97
2022-09-03T13:04:54.681Z,2.75
2022-09-03T13:07:26.217Z,3.42
2022-09-03T13:09:55.857Z,3.40
2022-09-03T13:12:24.829Z,3.05
2022-09-03T13:14:52.935Z,2.63
2022-09-03T13:17:30.291Z,2.60
2022-09-03T13:19:56.593Z,3.00
2022-09-03T13:22:41.810Z,3.55
2022-09-03T13:25:25.161Z,2.90
2022-09-03T13:28:14.881Z,3.60
2022-09-03T13:31:01.529Z,3.20
2022-09-03T13:33:50.202Z,3.00
2022-09-03T13:36:19.198Z,3.00
2022-09-03T13:38:54.657Z,2.50
2022-09-03T13:41:36.431Z,3.15
2022-09-03T13:44:08.642Z,2.90
2022-09-03T13:46:34.998Z,3.10
2022-09-03T13:49:25.602Z,2.60
2022-09-03T13:51:56.873Z,2.22
2022-09-03T13:54:47.625Z,2.53
2022-09-03T13:57:21.789Z,2.70
2022-09-03T14:00:04.747Z,2.30
2022-09-03T14:02:50.260Z,2.53
2022-09-03T14:05:16.579Z,2.50
2022-09-03T14:07:58.249Z,2.63
2022-09-03T14:10:33.773Z,2.38
2022-09-03T14:13:04.103Z,2.90
2022-09-03T14:15:33.909Z,2.85
2022-09-03T14:18:12.726Z,2.50
2022-09-03T14:20:46.287Z,2.70
2022-09-03T14:23:24.859Z,2.45
2022-09-03T14:25:54.990Z,2.40
2022-09-03T14:28:27.387Z,2.00
2022-09-03T14:31:15.458Z,1.95
2022-09-03T14:33:55.298Z,2.15
2022-09-03T14:36:27.682Z,2.20
2022-09-03T14:39:00.197Z,1.92
2022-09-03T14:41:26.494Z,2.00
2022-09-03T14:44:17.730Z,1.92
2022-09-03T14:46:55.369Z,2.05
2022-09-03T14:49:27.775Z,1.83
2022-09-03T14:52:03.684Z,2.00
2022-09-03T14:54:42.204Z,2.00
2022-09-03T14:57:20.713Z,1.75
2022-09-03T14:59:47.008Z,1.95
2022-09-03T15:02:31.786Z,1.88
2022-09-03T15:05:17.032Z,2.05
2022-09-03T15:07:48.558Z,1.90
2022-09-03T15:10:19.050Z,1.70
2022-09-03T15:12:48.665Z,2.10
2022-09-03T15:15:21.842Z,1.98
2022-09-03T15:18:12.981Z,2.00
2022-09-03T15:20:48.590Z,1.83
2022-09-03T15:23:30.891Z,2.10
2022-09-03T15:26:16.211Z,2.10
2022-09-03T15:28:54.879Z,1.90
2022-09-03T15:31:40.123Z,1.75
2022-09-03T15:34:09.585Z,2.20
2022-09-03T15:36:38.849Z,1.80
2022-09-03T15:39:26.558Z,2.50
2022-09-03T15:42:11.041Z,2.00
2022-09-03T15:47:14.421Z,2.00
2022-09-03T15:49:52.190Z,2.17
2022-09-03T15:52:42.144Z,1.95
2022-09-03T15:55:23.359Z,2.00
2022-09-03T15:58:04.940Z,2.15
2022-09-03T16:00:32.230Z,1.85
2022-09-03T16:02:58.908Z,2.10
2022-09-03T16:05:39.261Z,2.10
2022-09-03T16:08:35.047Z,2.60
2022-09-03T16:11:17.821Z,2.70
2022-09-03T16:13:50.529Z,2.65
2022-09-03T16:16:26.452Z,2.33
2022-09-03T16:19:02.488Z,2.50
2022-09-03T16:21:28.816Z,2.88
2022-09-03T16:23:58.724Z,2.50
2022-09-03T16:26:29.381Z,2.75
2022-09-03T16:29:00.432Z,2.70
2022-09-03T16:31:37.319Z,3.10
2022-09-03T16:34:18.694Z,2.63
2022-09-03T16:37:06.088Z,2.33
2022-09-03T16:39:38.629Z,2.47
2022-09-03T16:42:08.344Z,2.70
2022-09-03T16:44:45.829Z,2.75
2022-09-03T16:47:19.014Z,2.53
2022-09-03T16:50:06.160Z,2.80
2022-09-03T16:52:44.570Z,2.42
2022-09-03T16:55:18.554Z,2.92
2022-09-03T16:57:54.625Z,2.28
2022-09-03T17:00:21.785Z,2.60
2022-09-03T17:02:51.152Z,2.50
2022-09-03T17:05:36.456Z,1.70
2022-09-03T17:08:07.980Z,1.85
2022-09-03T17:10:41.365Z,1.73
2022-09-03T17:13:13.949Z,1.75
2022-09-03T17:15:59.124Z,1.80
2022-09-03T17:18:31.624Z,1.27
2022-09-03T17:21:08.026Z,1.20
2022-09-03T17:23:44.041Z,2.00
2022-09-03T17:26:13.265Z,1.20
2022-09-03T17:28:42.674Z,1.10
2022-09-03T17:31:12.086Z,1.13
2022-09-03T17:33:52.828Z,1.15
2022-09-03T17:36:24.308Z,0.98
2022-09-03T17:39:10.680Z,1.30
2022-09-03T17:41:40.709Z,1.30
2022-09-03T17:44:11.112Z,1.40
2022-09-03T17:46:46.137Z,1.45
2022-09-03T17:49:26.124Z,1.40
2022-09-03T17:51:52.461Z,1.45
2022-09-03T17:54:35.244Z,1.10
2022-09-03T17:57:26.685Z,1.08
2022-09-03T17:59:58.740Z,1.10
2022-09-03T18:02:34.476Z,1.30
2022-09-03T18:05:16.604Z,1.60
2022-09-03T18:08:12.661Z,1.70
2022-09-03T18:10:57.844Z,1.70
2022-09-03T18:13:30.307Z,1.58
2022-09-03T18:16:09.521Z,1.73
2022-09-03T18:18:38.750Z,1.60
2022-09-03T18:21:30.799Z,1.80
2022-09-03T18:24:42.332Z,1.60
2022-09-03T18:27:36.425Z,1.55
2022-09-03T18:30:32.170Z,1.25
2022-09-03T18:33:16.970Z,1.33
2022-09-03T18:36:03.280Z,0.90
2022-09-03T18:38:52.985Z,1.00
2022-09-03T18:41:57.763Z,0.80
2022-09-03T18:44:43.019Z,0.90
2022-09-03T18:50:43.086Z,0.90
2022-09-03T18:53:35.888Z,0.98
2022-09-03T18:56:26.165Z,1.20
2022-09-03T18:59:30.201Z,1.08
2022-09-03T19:02:15.204Z,1.08
2022-09-03T19:05:00.552Z,0.82
2022-09-03T19:08:01.759Z,0.85
2022-09-03T19:10:52.576Z,0.90
2022-09-03T19:13:51.874Z,1.00
2022-09-03T19:16:45.704Z,0.90
2022-09-03T19:19:39.995Z,1.10
2022-09-03T19:22:26.852Z,0.90
2022-09-03T19:25:14.428Z,1.30
2022-09-03T19:28:07.426Z,1.70
2022-09-03T19:30:52.308Z,1.75
2022-09-03T19:33:43.149Z,1.77
2022-09-03T19:36:45.536Z,1.85
2022-09-03T19:39:30.652Z,1.83
2022-09-03T19:42:29.354Z,1.95
2022-09-03T19:45:33.252Z,1.95
2022-09-03T19:48:37.601Z,1.95
2022-09-03T19:51:31.998Z,1.90
2022-09-03T19:54:18.056Z,1.50
2022-09-03T19:57:04.136Z,1.80
2022-09-03T19:59:52.653Z,1.50
2022-09-03T20:02:37.659Z,1.30
2022-09-03T20:05:25.753Z,1.42
2022-09-03T20:08:12.985Z,1.60
2022-09-03T20:10:41.638Z,1.50
2022-09-03T20:13:08.968Z,1.48
2022-09-03T20:15:54.017Z,1.48
2022-09-03T20:18:29.324Z,1.98
2022-09-03T20:21:21.983Z,1.67
2022-09-03T20:24:12.787Z,1.67
2022-09-03T20:26:54.675Z,1.45
2022-09-03T20:29:30.268Z,1.30
2022-09-03T20:32:10.940Z,1.50
2022-09-03T20:34:37.289Z,1.52
2022-09-03T20:37:09.857Z,1.52
2022-09-03T20:39:38.977Z,1.85
2022-09-03T20:42:14.414Z,1.80
2022-09-03T20:44:50.861Z,1.77
2022-09-03T20:47:30.668Z,1.60
2022-09-03T20:49:57.333Z,1.60
2022-09-03T20:52:30.636Z,1.67
2022-09-03T20:55:03.984Z,1.60
2022-09-03T20:57:39.472Z,1.83
2022-09-03T21:00:09.942Z,1.90
2022-09-03T21:02:36.301Z,1.70
2022-09-03T21:05:08.573Z,2.10
2022-09-03T21:07:55.622Z,1.88
2022-09-03T21:10:29.961Z,2.00
2022-09-03T21:13:15.943Z,2.00
2022-09-03T21:16:05.584Z,2.00
2022-09-03T21:18:41.229Z,2.00
2022-09-03T21:21:26.516Z,2.13
2022-09-03T21:24:05.365Z,2.20
2022-09-03T21:26:34.701Z,2.40
2022-09-03T21:29:07.155Z,2.08
2022-09-03T21:31:38.867Z,2.10
2022-09-03T21:34:11.182Z,2.20
2022-09-03T21:36:39.029Z,2.17
2022-09-03T21:39:05.373Z,2.10
2022-09-03T21:41:52.473Z,2.30
2022-09-03T21:44:37.024Z,2.03
2022-09-03T21:47:06.189Z,2.30
2022-09-03T21:49:38.250Z,2.08
2022-09-03T21:52:04.558Z,1.67
2022-09-03T21:54:33.580Z,1.92
2022-09-03T21:57:09.116Z,1.60
2022-09-03T21:59:50.465Z,1.80
2022-09-03T22:02:21.596Z,1.65
2022-09-03T22:04:48.026Z,1.70
2022-09-03T22:07:20.519Z,1.80
2022-09-03T22:09:54.666Z,1.90
2022-09-03T22:12:20.989Z,1.80
2022-09-03T22:14:49.225Z,2.10
2022-09-03T22:17:18.905Z,2.10
2022-09-03T22:19:45.884Z,2.00
2022-09-03T22:22:23.009Z,1.70
2022-09-03T22:25:04.590Z,1.75
2022-09-03T22:27:35.466Z,1.80
2022-09-03T22:30:19.953Z,1.38
2022-09-03T22:33:03.226Z,1.65
2022-09-03T22:35:29.547Z,1.27
2022-09-03T22:37:58.921Z,1.73
2022-09-03T22:40:28.340Z,1.40
2022-09-03T22:42:57.478Z,1.60
2022-09-03T22:45:33.475Z,1.50
2022-09-03T22:48:32.468Z,1.48
2022-09-03T22:50:59.765Z,1.58
2022-09-03T22:53:45.082Z,1.63
2022-09-03T22:56:12.525Z,1.67
2022-09-03T22:58:44.888Z,1.65
2022-09-03T23:01:20.952Z,1.63
2022-09-03T23:03:56.754Z,1.50
2022-09-03T23:06:32.326Z,1.67
2022-09-03T23:09:06.982Z,1.52
2022-09-03T23:11:42.106Z,1.88
2022-09-03T23:14:09.696Z,1.60
2022-09-03T23:16:46.506Z,1.80
2022-09-03T23:21:53.953Z,2.10
2022-09-03T23:24:41.682Z,2.55
2022-09-03T23:27:10.481Z,2.60
2022-09-03T23:29:40.269Z,2.70
2022-09-03T23:32:09.126Z,2.65
2022-09-03T23:34:36.264Z,2.83
2022-09-03T23:37:32.330Z,2.83
2022-09-03T23:39:57.779Z,2.53
2022-09-03T23:42:43.066Z,2.40
2022-09-03T23:45:22.531Z,2.60
2022-09-03T23:48:07.253Z,2.60
2022-09-03T23:50:53.832Z,2.08
2022-09-03T23:53:23.849Z,2.08
2022-09-03T23:55:59.597Z,2.30
2022-09-03T23:58:45.364Z,2.20
